sensor_id;sensor_type;location;lat;lon;timestamp;pressure;altitude;pressure_sealevel;temperature;humidity
46836;BME280;32573;51.290;6.926;2022-12-24T00:01:34;99281.28;;;10.75;100.00
46836;BME280;32573;51.290;6.926;2022-12-24T00:04:02;99282.13;;;10.75;100.00
46836;BME280;32573;51.290;6.926;2022-12-24T00:06:31;99292.59;;;10.75;100.00
46836;BME280;32573;51.290;6.926;2022-12-24T00:08:59;99291.75;;;10.75;100.00
46836;BME280;32573;51.290;6.926;2022-12-24T00:11:27;99302.22;;;10.75;100.00
46836;BME280;32573;51.290;6.926;2022-12-24T00:13:56;99298.72;;;10.74;100.00
46836;BME280;32573;51.290;6.926;2022-12-24T00:16:26;99298.72;;;10.74;100.00
46836;BME280;32573;51.290;6.926;2022-12-24T00:18:54;99299.59;;;10.75;100.00
46836;BME280;32573;51.290;6.926;2022-12-24T00:21:23;99291.75;;;10.75;100.00
46836;BME280;32573;51.290;6.926;2022-12-24T00:23:51;99301.34;;;10.74;100.00
46836;BME280;32573;51.290;6.926;2022-12-24T00:26:20;99300.47;;;10.74;100.00
46836;BME280;32573;51.290;6.926;2022-12-24T00:28:48;99312.69;;;10.75;100.00
46836;BME280;32573;51.290;6.926;2022-12-24T00:31:17;99309.22;;;10.76;100.00
46836;BME280;32573;51.290;6.926;2022-12-24T00:33:47;99301.38;;;10.76;100.00
46836;BME280;32573;51.290;6.926;2022-12-24T00:36:17;99307.47;;;10.78;100.00
46836;BME280;32573;51.290;6.926;2022-12-24T00:38:46;99322.31;;;10.77;100.00
46836;BME280;32573;51.290;6.926;2022-12-24T00:41:15;99317.94;;;10.78;100.00
46836;BME280;32573;51.290;6.926;2022-12-24T00:43:53;99323.19;;;10.76;100.00
46836;BME280;32573;51.290;6.926;2022-12-24T00:46:22;99313.56;;;10.74;100.00
46836;BME280;32573;51.290;6.926;2022-12-24T00:48:53;99312.66;;;10.72;100.00
46836;BME280;32573;51.290;6.926;2022-12-24T00:51:22;99324.81;;;10.70;100.00
46836;BME280;32573;51.290;6.926;2022-12-24T00:53:51;99330.94;;;10.69;100.00
46836;BME280;32573;51.290;6.926;2022-12-24T00:56:20;99344.88;;;10.69;100.00
46836;BME280;32573;51.290;6.926;2022-12-24T00:58:49;99342.25;;;10.68;100.00
46836;BME280;32573;51.290;6.926;2022-12-24T01:01:17;99331.78;;;10.68;100.00
46836;BME280;32573;51.290;6.926;2022-12-24T01:03:46;99345.69;;;10.65;100.00
46836;BME280;32573;51.290;6.926;2022-12-24T01:06:18;99341.28;;;10.63;100.00
46836;BME280;32573;51.290;6.926;2022-12-24T01:08:49;99342.16;;;10.63;100.00
46836;BME280;32573;51.290;6.926;2022-12-24T01:11:17;99353.53;;;10.64;100.00
46836;BME280;32573;51.290;6.926;2022-12-24T01:13:46;99350.94;;;10.64;100.00
46836;BME280;32573;51.290;6.926;2022-12-24T01:16:16;99364.84;;;10.63;100.00
46836;BME280;32573;51.290;6.926;2022-12-24T01:18:45;99357.88;;;10.62;100.00
46836;BME280;32573;51.290;6.926;2022-12-24T01:21:15;99366.56;;;10.61;100.00
46836;BME280;32573;51.290;6.926;2022-12-24T01:23:44;99380.50;;;10.60;100.00
46836;BME280;32573;51.290;6.926;2022-12-24T01:26:12;99373.53;;;10.58;100.00
46836;BME280;32573;51.290;6.926;2022-12-24T01:28:41;99393.56;;;10.58;100.00
46836;BME280;32573;51.290;6.926;2022-12-24T01:31:11;99390.06;;;10.57;100.00
46836;BME280;32573;51.290;6.926;2022-12-24T01:33:40;99396.19;;;10.58;100.00
46836;BME280;32573;51.290;6.926;2022-12-24T01:36:09;99396.19;;;10.56;100.00
46836;BME280;32573;51.290;6.926;2022-12-24T01:38:39;99396.19;;;10.56;100.00
46836;BME280;32573;51.290;6.926;2022-12-24T01:41:13;99396.19;;;10.56;100.00
46836;BME280;32573;51.290;6.926;2022-12-24T01:44:21;99394.41;;;10.55;100.00
46836;BME280;32573;51.290;6.926;2022-12-24T01:46:59;99397.88;;;10.54;100.00
46836;BME280;32573;51.290;6.926;2022-12-24T01:49:29;99396.13;;;10.53;100.00
46836;BME280;32573;51.290;6.926;2022-12-24T01:52:01;99397.88;;;10.54;100.00
46836;BME280;32573;51.290;6.926;2022-12-24T01:54:36;99402.25;;;10.54;100.00
46836;BME280;32573;51.290;6.926;2022-12-24T01:57:08;99404.81;;;10.52;100.00
46836;BME280;32573;51.290;6.926;2022-12-24T01:59:41;99404.81;;;10.52;100.00
46836;BME280;32573;51.290;6.926;2022-12-24T02:02:11;99417.91;;;10.51;100.00
46836;BME280;32573;51.290;6.926;2022-12-24T02:04:44;99413.53;;;10.51;100.00
46836;BME280;32573;51.290;6.926;2022-12-24T02:07:15;99419.63;;;10.50;100.00
46836;BME280;32573;51.290;6.926;2022-12-24T02:09:46;99432.69;;;10.50;100.00
46836;BME280;32573;51.290;6.926;2022-12-24T02:12:16;99437.94;;;10.50;100.00
46836;BME280;32573;51.290;6.926;2022-12-24T02:14:45;99439.66;;;10.48;100.00
46836;BME280;32573;51.290;6.926;2022-12-24T02:17:18;99433.53;;;10.48;100.00
46836;BME280;32573;51.290;6.926;2022-12-24T02:22:57;99443.94;;;10.45;100.00
46836;BME280;32573;51.290;6.926;2022-12-24T02:25:43;99459.66;;;10.45;100.00
46836;BME280;32573;51.290;6.926;2022-12-24T02:28:35;99463.13;;;10.44;100.00
46836;BME280;32573;51.290;6.926;2022-12-24T02:31:14;99452.66;;;10.44;100.00
46836;BME280;32573;51.290;6.926;2022-12-24T02:33:46;99464.84;;;10.42;100.00
46836;BME280;32573;51.290;6.926;2022-12-24T02:36:22;99461.34;;;10.41;100.00
46836;BME280;32573;51.290;6.926;2022-12-24T02:38:59;99466.53;;;10.40;100.00
46836;BME280;32573;51.290;6.926;2022-12-24T02:41:32;99461.25;;;10.38;100.00
46836;BME280;32573;51.290;6.926;2022-12-24T02:44:22;99474.34;;;10.38;100.00
46836;BME280;32573;51.290;6.926;2022-12-24T02:46:54;99465.63;;;10.36;100.00
46836;BME280;32573;51.290;6.926;2022-12-24T02:49:24;99471.69;;;10.35;100.00
46836;BME280;32573;51.290;6.926;2022-12-24T02:51:52;99477.78;;;10.34;100.00
46836;BME280;32573;51.290;6.926;2022-12-24T02:54:20;99471.63;;;10.32;100.00
46836;BME280;32573;51.290;6.926;2022-12-24T02:57:03;99478.59;;;10.31;100.00
46836;BME280;32573;51.290;6.926;2022-12-24T02:59:47;99471.59;;;10.29;100.00
46836;BME280;32573;51.290;6.926;2022-12-24T03:02:25;99475.88;;;10.27;100.00
46836;BME280;32573;51.290;6.926;2022-12-24T03:05:06;99475.81;;;10.24;100.00
46836;BME280;32573;51.290;6.926;2022-12-24T03:07:44;99480.16;;;10.23;100.00
46836;BME280;32573;51.290;6.926;2022-12-24T03:10:22;99481.00;;;10.22;100.00
46836;BME280;32573;51.290;6.926;2022-12-24T03:12:58;99477.47;;;10.19;100.00
46836;BME280;32573;51.290;6.926;2022-12-24T03:15:30;99487.03;;;10.17;100.00
46836;BME280;32573;51.290;6.926;2022-12-24T03:18:02;99483.50;;;10.14;100.00
46836;BME280;32573;51.290;6.926;2022-12-24T03:20:36;99486.06;;;10.11;100.00
46836;BME280;32573;51.290;6.926;2022-12-24T03:23:05;99489.50;;;10.10;100.00
46836;BME280;32573;51.290;6.926;2022-12-24T03:25:39;99484.28;;;10.09;100.00
46836;BME280;32573;51.290;6.926;2022-12-24T03:28:09;99483.41;;;10.08;100.00
46836;BME280;32573;51.290;6.926;2022-12-24T03:30:40;99493.00;;;10.09;100.00
46836;BME280;32573;51.290;6.926;2022-12-24T03:33:13;99484.28;;;10.10;100.00
46836;BME280;32573;51.290;6.926;2022-12-24T03:35:42;99494.75;;;10.10;100.00
46836;BME280;32573;51.290;6.926;2022-12-24T03:38:10;99493.03;;;10.11;100.00
46836;BME280;32573;51.290;6.926;2022-12-24T03:40:38;99504.38;;;10.13;100.00
46836;BME280;32573;51.290;6.926;2022-12-24T03:43:07;99502.66;;;10.13;100.00
46836;BME280;32573;51.290;6.926;2022-12-24T03:45:35;99493.97;;;10.14;100.00
46836;BME280;32573;51.290;6.926;2022-12-24T03:48:04;99500.06;;;10.15;100.00
46836;BME280;32573;51.290;6.926;2022-12-24T03:50:34;99512.31;;;10.18;100.00
46836;BME280;32573;51.290;6.926;2022-12-24T03:53:02;99502.72;;;10.18;100.00
46836;BME280;32573;51.290;6.926;2022-12-24T03:55:31;99504.50;;;10.19;100.00
46836;BME280;32573;51.290;6.926;2022-12-24T03:57:59;99500.16;;;10.20;100.00
46836;BME280;32573;51.290;6.926;2022-12-24T04:00:27;99509.75;;;10.19;100.00
46836;BME280;32573;51.290;6.926;2022-12-24T04:02:55;99501.91;;;10.21;100.00
46836;BME280;32573;51.290;6.926;2022-12-24T04:05:24;99500.19;;;10.21;100.00
46836;BME280;32573;51.290;6.926;2022-12-24T04:07:54;99516.75;;;10.23;100.00
46836;BME280;32573;51.290;6.926;2022-12-24T04:10:22;99518.53;;;10.24;100.00
46836;BME280;32573;51.290;6.926;2022-12-24T04:12:50;99525.53;;;10.25;100.00
46836;BME280;32573;51.290;6.926;2022-12-24T04:15:19;99522.91;;;10.25;100.00
46836;BME280;32573;51.290;6.926;2022-12-24T04:17:47;99522.06;;;10.26;100.00
46836;BME280;32573;51.290;6.926;2022-12-24T04:20:15;99515.09;;;10.27;100.00
46836;BME280;32573;51.290;6.926;2022-12-24T04:22:44;99529.97;;;10.28;100.00
46836;BME280;32573;51.290;6.926;2022-12-24T04:25:14;99523.81;;;10.27;100.00
46836;BME280;32573;51.290;6.926;2022-12-24T04:27:42;99529.13;;;10.29;100.00
46836;BME280;32573;51.290;6.926;2022-12-24T04:30:11;99531.75;;;10.29;100.00
46836;BME280;32573;51.290;6.926;2022-12-24T04:32:39;99542.22;;;10.29;100.00
46836;BME280;32573;51.290;6.926;2022-12-24T04:35:08;99538.72;;;10.30;100.00
46836;BME280;32573;51.290;6.926;2022-12-24T04:37:36;99557.91;;;10.30;100.00
46836;BME280;32573;51.290;6.926;2022-12-24T04:40:06;99537.00;;;10.30;100.00
46836;BME280;32573;51.290;6.926;2022-12-24T04:42:35;99537.91;;;10.31;100.00
46836;BME280;32573;51.290;6.926;2022-12-24T04:45:04;99548.38;;;10.32;100.00
46836;BME280;32573;51.290;6.926;2022-12-24T04:47:33;99544.91;;;10.33;100.00
46836;BME280;32573;51.290;6.926;2022-12-24T04:50:01;99547.53;;;10.33;100.00
46836;BME280;32573;51.290;6.926;2022-12-24T04:52:30;99551.03;;;10.34;100.00
46836;BME280;32573;51.290;6.926;2022-12-24T04:54:58;99559.69;;;10.33;100.00
46836;BME280;32573;51.290;6.926;2022-12-24T04:57:27;99563.19;;;10.32;100.00
46836;BME280;32573;51.290;6.926;2022-12-24T04:59:56;99559.66;;;10.30;100.00
46836;BME280;32573;51.290;6.926;2022-12-24T05:02:25;99566.59;;;10.28;100.00
46836;BME280;32573;51.290;6.926;2022-12-24T05:04:53;99550.81;;;10.25;100.00
46836;BME280;32573;51.290;6.926;2022-12-24T05:07:21;99558.63;;;10.23;100.00
46836;BME280;32573;51.290;6.926;2022-12-24T05:09:50;99564.72;;;10.22;100.00
46836;BME280;32573;51.290;6.926;2022-12-24T05:12:18;99568.19;;;10.21;100.00
46836;BME280;32573;51.290;6.926;2022-12-24T05:14:46;99569.88;;;10.19;100.00
46836;BME280;32573;51.290;6.926;2022-12-24T05:17:16;99562.88;;;10.18;100.00
46836;BME280;32573;51.290;6.926;2022-12-24T05:19:44;99568.09;;;10.17;100.00
46836;BME280;32573;51.290;6.926;2022-12-24T05:22:13;99570.66;;;10.15;100.00
46836;BME280;32573;51.290;6.926;2022-12-24T05:24:58;99562.81;;;10.13;100.00
46836;BME280;32573;51.290;6.926;2022-12-24T05:27:44;99566.25;;;10.12;100.00
46836;BME280;32573;51.290;6.926;2022-12-24T05:30:17;99573.22;;;10.12;100.00
46836;BME280;32573;51.290;6.926;2022-12-24T05:32:47;99567.13;;;10.11;100.00
46836;BME280;32573;51.290;6.926;2022-12-24T05:35:15;99584.56;;;10.12;100.00
46836;BME280;32573;51.290;6.926;2022-12-24T05:37:44;99580.19;;;10.11;100.00
46836;BME280;32573;51.290;6.926;2022-12-24T05:40:12;99590.66;;;10.11;100.00
46836;BME280;32573;51.290;6.926;2022-12-24T05:42:41;99596.75;;;10.12;100.00
46836;BME280;32573;51.290;6.926;2022-12-24T05:45:09;99581.94;;;10.11;100.00
46836;BME280;32573;51.290;6.926;2022-12-24T05:47:37;99585.44;;;10.11;100.00
46836;BME280;32573;51.290;6.926;2022-12-24T05:50:11;99588.03;;;10.11;100.00
46836;BME280;32573;51.290;6.926;2022-12-24T05:52:39;99595.00;;;10.11;100.00
46836;BME280;32573;51.290;6.926;2022-12-24T05:55:09;99581.94;;;10.11;100.00
46836;BME280;32573;51.290;6.926;2022-12-24T05:57:38;99585.44;;;10.11;100.00
46836;BME280;32573;51.290;6.926;2022-12-24T06:00:07;99598.50;;;10.11;100.00
46836;BME280;32573;51.290;6.926;2022-12-24T06:02:38;99601.13;;;10.11;100.00
46836;BME280;32573;51.290;6.926;2022-12-24T06:05:07;99597.63;;;10.12;100.00
46836;BME280;32573;51.290;6.926;2022-12-24T06:07:37;99596.75;;;10.12;100.00
46836;BME280;32573;51.290;6.926;2022-12-24T06:10:08;99604.66;;;10.13;100.00
46836;BME280;32573;51.290;6.926;2022-12-24T06:12:37;99602.03;;;10.13;100.00
46836;BME280;32573;51.290;6.926;2022-12-24T06:15:06;99603.78;;;10.14;100.00
46836;BME280;32573;51.290;6.926;2022-12-24T06:17:35;99609.00;;;10.14;100.00
46836;BME280;32573;51.290;6.926;2022-12-24T06:20:04;99611.63;;;10.14;100.00
46836;BME280;32573;51.290;6.926;2022-12-24T06:22:33;99620.34;;;10.13;100.00
46836;BME280;32573;51.290;6.926;2022-12-24T06:25:03;99623.78;;;10.12;100.00
46836;BME280;32573;51.290;6.926;2022-12-24T06:27:31;99621.16;;;10.12;100.00
46836;BME280;32573;51.290;6.926;2022-12-24T06:30:00;99622.03;;;10.11;100.00
46836;BME280;32573;51.290;6.926;2022-12-24T06:32:28;99627.25;;;10.11;100.00
46836;BME280;32573;51.290;6.926;2022-12-24T06:34:56;99629.00;;;10.11;100.00
46836;BME280;32573;51.290;6.926;2022-12-24T06:37:25;99628.09;;;10.10;100.00
46836;BME280;32573;51.290;6.926;2022-12-24T06:39:53;99625.47;;;10.10;100.00
46836;BME280;32573;51.290;6.926;2022-12-24T06:42:23;99630.72;;;10.10;100.00
46836;BME280;32573;51.290;6.926;2022-12-24T06:44:51;99635.94;;;10.10;100.00
46836;BME280;32573;51.290;6.926;2022-12-24T06:47:20;99637.69;;;10.10;100.00
46836;BME280;32573;51.290;6.926;2022-12-24T06:49:48;99650.75;;;10.10;100.00
46836;BME280;32573;51.290;6.926;2022-12-24T06:52:16;99649.00;;;10.10;100.00
46836;BME280;32573;51.290;6.926;2022-12-24T06:54:45;99643.78;;;10.10;100.00
46836;BME280;32573;51.290;6.926;2022-12-24T06:57:13;99653.41;;;10.11;100.00
46836;BME280;32573;51.290;6.926;2022-12-24T06:59:43;99666.50;;;10.11;100.00
46836;BME280;32573;51.290;6.926;2022-12-24T07:02:11;99669.09;;;10.11;100.00
46836;BME280;32573;51.290;6.926;2022-12-24T07:04:39;99670.84;;;10.12;100.00
46836;BME280;32573;51.290;6.926;2022-12-24T07:07:08;99659.56;;;10.15;100.00
46836;BME280;32573;51.290;6.926;2022-12-24T07:09:36;99666.56;;;10.14;100.00
46836;BME280;32573;51.290;6.926;2022-12-24T07:12:05;99670.91;;;10.15;100.00
46836;BME280;32573;51.290;6.926;2022-12-24T07:14:33;99675.31;;;10.17;100.00
46836;BME280;32573;51.290;6.926;2022-12-24T07:17:03;99670.09;;;10.18;100.00
46836;BME280;32573;51.290;6.926;2022-12-24T07:19:31;99667.47;;;10.17;100.00
46836;BME280;32573;51.290;6.926;2022-12-24T07:22:00;99671.00;;;10.19;100.00
46836;BME280;32573;51.290;6.926;2022-12-24T07:24:29;99677.94;;;10.18;100.00
46836;BME280;32573;51.290;6.926;2022-12-24T07:26:57;99687.56;;;10.19;100.00
46836;BME280;32573;51.290;6.926;2022-12-24T07:29:25;99689.31;;;10.19;100.00
46836;BME280;32573;51.290;6.926;2022-12-24T07:31:54;99690.19;;;10.19;100.00
46836;BME280;32573;51.290;6.926;2022-12-24T07:34:24;99689.31;;;10.19;100.00
46836;BME280;32573;51.290;6.926;2022-12-24T07:36:52;99694.53;;;10.19;100.00
46836;BME280;32573;51.290;6.926;2022-12-24T07:39:20;99693.69;;;10.20;100.00
46836;BME280;32573;51.290;6.926;2022-12-24T07:41:48;99695.41;;;10.19;100.00
46836;BME280;32573;51.290;6.926;2022-12-24T07:44:18;99700.59;;;10.18;100.00
46836;BME280;32573;51.290;6.926;2022-12-24T07:46:47;99701.41;;;10.15;100.00
46836;BME280;32573;51.290;6.926;2022-12-24T07:49:15;99704.03;;;10.13;100.00
46836;BME280;32573;51.290;6.926;2022-12-24T07:51:45;99707.47;;;10.12;100.00
46836;BME280;32573;51.290;6.926;2022-12-24T07:54:13;99713.50;;;10.10;100.00
46836;BME280;32573;51.290;6.926;2022-12-24T07:56:42;99720.47;;;10.09;100.00
46836;BME280;32573;51.290;6.926;2022-12-24T07:59:11;99730.03;;;10.07;100.00
46836;BME280;32573;51.290;6.926;2022-12-24T08:01:39;99738.72;;;10.06;100.00
46836;BME280;32573;51.290;6.926;2022-12-24T08:04:08;99734.31;;;10.04;100.00
46836;BME280;32573;51.290;6.926;2022-12-24T08:06:37;99735.19;;;10.04;100.00
46836;BME280;32573;51.290;6.926;2022-12-24T08:09:07;99729.91;;;10.01;100.00
46836;BME280;32573;51.290;6.926;2022-12-24T08:11:35;99748.16;;;10.00;100.00
46836;BME280;32573;51.290;6.926;2022-12-24T08:14:03;99742.03;;;9.99;100.00
46836;BME280;32573;51.290;6.926;2022-12-24T08:16:32;99749.84;;;9.98;100.00
46836;BME280;32573;51.290;6.926;2022-12-24T08:19:00;99757.69;;;9.98;100.00
46836;BME280;32573;51.290;6.926;2022-12-24T08:21:28;99750.66;;;9.95;100.00
46836;BME280;32573;51.290;6.926;2022-12-24T08:23:57;99765.50;;;9.96;100.00
46836;BME280;32573;51.290;6.926;2022-12-24T08:26:26;99762.84;;;9.94;100.00
46836;BME280;32573;51.290;6.926;2022-12-24T08:28:55;99768.94;;;9.95;100.00
46836;BME280;32573;51.290;6.926;2022-12-24T08:31:23;99771.56;;;9.95;100.00
46836;BME280;32573;51.290;6.926;2022-12-24T08:33:51;99775.97;;;9.96;100.00
46836;BME280;32573;51.290;6.926;2022-12-24T08:36:20;99778.56;;;9.96;100.00
46836;BME280;32573;51.290;6.926;2022-12-24T08:38:48;99775.06;;;9.96;100.00
46836;BME280;32573;51.290;6.926;2022-12-24T08:41:16;99777.66;;;9.96;100.00
46836;BME280;32573;51.290;6.926;2022-12-24T08:43:46;99782.91;;;9.96;100.00
46836;BME280;32573;51.290;6.926;2022-12-24T08:46:14;99777.72;;;9.97;100.00
46836;BME280;32573;51.290;6.926;2022-12-24T08:48:43;99789.06;;;9.98;100.00
46836;BME280;32573;51.290;6.926;2022-12-24T08:51:11;99781.22;;;9.98;100.00
46836;BME280;32573;51.290;6.926;2022-12-24T08:53:40;99780.34;;;9.97;100.00
46836;BME280;32573;51.290;6.926;2022-12-24T08:56:08;99783.00;;;9.99;100.00
46836;BME280;32573;51.290;6.926;2022-12-24T08:58:37;99789.09;;;9.99;100.00
46836;BME280;32573;51.290;6.926;2022-12-24T09:01:12;99787.41;;;10.01;100.00
46836;BME280;32573;51.290;6.926;2022-12-24T09:03:41;99790.91;;;10.03;100.00
46836;BME280;32573;51.290;6.926;2022-12-24T09:06:10;99797.06;;;10.05;100.00
46836;BME280;32573;51.290;6.926;2022-12-24T09:08:38;99795.34;;;10.06;100.00
46836;BME280;32573;51.290;6.926;2022-12-24T09:11:09;99804.16;;;10.09;100.00
46836;BME280;32573;51.290;6.926;2022-12-24T09:13:38;99805.09;;;10.11;100.00
46836;BME280;32573;51.290;6.926;2022-12-24T09:16:07;99809.47;;;10.12;100.00
46836;BME280;32573;51.290;6.926;2022-12-24T09:18:37;99817.38;;;10.15;100.00
46836;BME280;32573;51.290;6.926;2022-12-24T09:21:08;99813.91;;;10.17;100.00
46836;BME280;32573;51.290;6.926;2022-12-24T09:23:41;99825.31;;;10.19;100.00
46836;BME280;32573;51.290;6.926;2022-12-24T09:26:13;99828.00;;;10.22;100.00
46836;BME280;32573;51.290;6.926;2022-12-24T09:28:41;99836.75;;;10.24;100.00
46836;BME280;32573;51.290;6.926;2022-12-24T09:31:11;99838.53;;;10.25;100.00
46836;BME280;32573;51.290;6.926;2022-12-24T09:33:43;99848.16;;;10.27;100.00
46836;BME280;32573;51.290;6.926;2022-12-24T09:36:11;99853.47;;;10.29;100.00
46836;BME280;32573;51.290;6.926;2022-12-24T09:38:40;99850.94;;;10.32;100.00
46836;BME280;32573;51.290;6.926;2022-12-24T09:41:13;99854.47;;;10.34;100.00
46836;BME280;32573;51.290;6.926;2022-12-24T09:43:45;99870.19;;;10.35;100.00
46836;BME280;32573;51.290;6.926;2022-12-24T09:46:19;99866.75;;;10.38;100.00
46836;BME280;32573;51.290;6.926;2022-12-24T09:48:53;99880.75;;;10.40;100.00
46836;BME280;32573;51.290;6.926;2022-12-24T09:51:26;99873.84;;;10.42;100.00
46836;BME280;32573;51.290;6.926;2022-12-24T09:53:59;99880.88;;;10.45;100.00
46836;BME280;32573;51.290;6.926;2022-12-24T09:56:39;99880.94;;;10.46;100.00
46836;BME280;32573;51.290;6.926;2022-12-24T09:59:10;99884.47;;;10.48;100.00
46836;BME280;32573;51.290;6.926;2022-12-24T10:01:41;99878.44;;;10.51;100.00
46836;BME280;32573;51.290;6.926;2022-12-24T10:04:13;99897.63;;;10.53;100.00
46836;BME280;32573;51.290;6.926;2022-12-24T10:06:48;99884.59;;;10.54;100.00
46836;BME280;32573;51.290;6.926;2022-12-24T10:09:23;99882.91;;;10.56;100.00
46836;BME280;32573;51.290;6.926;2022-12-24T10:12:00;99888.22;;;10.60;100.00
46836;BME280;32573;51.290;6.926;2022-12-24T10:14:45;99890.88;;;10.63;100.00
46836;BME280;32573;51.290;6.926;2022-12-24T10:17:29;99890.06;;;10.64;100.00
46836;BME280;32573;51.290;6.926;2022-12-24T10:20:21;99892.75;;;10.67;100.00
46836;BME280;32573;51.290;6.926;2022-12-24T10:22:58;99893.66;;;10.69;100.00
46836;BME280;32573;51.290;6.926;2022-12-24T10:25:34;99905.00;;;10.69;100.00
46836;BME280;32573;51.290;6.926;2022-12-24T10:28:13;99905.88;;;10.70;100.00
46836;BME280;32573;51.290;6.926;2022-12-24T10:30:44;99906.75;;;10.69;100.00
46836;BME280;32573;51.290;6.926;2022-12-24T10:33:24;99907.59;;;10.68;100.00
46836;BME280;32573;51.290;6.926;2022-12-24T10:35:57;99903.22;;;10.67;100.00
46836;BME280;32573;51.290;6.926;2022-12-24T10:38:32;99905.88;;;10.70;100.00
46836;BME280;32573;51.290;6.926;2022-12-24T10:41:01;99896.38;;;10.73;100.00
46836;BME280;32573;51.290;6.926;2022-12-24T10:43:32;99900.88;;;10.80;100.00
46836;BME280;32573;51.290;6.926;2022-12-24T10:46:06;99908.91;;;10.87;100.00
46836;BME280;32573;51.290;6.926;2022-12-24T10:48:43;99900.19;;;10.88;100.00
46836;BME280;32573;51.290;6.926;2022-12-24T10:51:24;99904.59;;;10.89;100.00
46836;BME280;32573;51.290;6.926;2022-12-24T10:54:04;99895.81;;;10.88;100.00
46836;BME280;32573;51.290;6.926;2022-12-24T10:56:43;99895.81;;;10.88;100.00
46836;BME280;32573;51.290;6.926;2022-12-24T10:59:24;99895.81;;;10.88;100.00
46836;BME280;32573;51.290;6.926;2022-12-24T11:01:59;99887.13;;;10.89;100.00
46836;BME280;32573;51.290;6.926;2022-12-24T11:04:30;99891.50;;;10.90;100.00
46836;BME280;32573;51.290;6.926;2022-12-24T11:07:03;99894.13;;;10.90;100.00
46836;BME280;32573;51.290;6.926;2022-12-24T11:09:37;99891.50;;;10.90;100.00
46836;BME280;32573;51.290;6.926;2022-12-24T11:12:18;99884.56;;;10.92;100.00
46836;BME280;32573;51.290;6.926;2022-12-24T11:15:00;99892.47;;;10.94;100.00
46836;BME280;32573;51.290;6.926;2022-12-24T11:17:32;99899.50;;;10.96;100.00
46836;BME280;32573;51.290;6.926;2022-12-24T11:20:03;99887.34;;;10.98;100.00
46836;BME280;32573;51.290;6.926;2022-12-24T11:22:37;99883.88;;;10.99;100.00
46836;BME280;32573;51.290;6.926;2022-12-24T11:25:20;99892.66;;;11.01;100.00
46836;BME280;32573;51.290;6.926;2022-12-24T11:27:50;99878.75;;;11.06;100.00
46836;BME280;32573;51.290;6.926;2022-12-24T11:30:30;99882.38;;;11.11;100.00
46836;BME280;32573;51.290;6.926;2022-12-24T11:33:20;99878.13;;;11.17;100.00
46836;BME280;32573;51.290;6.926;2022-12-24T11:35:53;99887.84;;;11.23;100.00
46836;BME280;32573;51.290;6.926;2022-12-24T11:38:27;99891.44;;;11.28;100.00
46836;BME280;32573;51.290;6.926;2022-12-24T11:41:00;99889.81;;;11.33;100.00
46836;BME280;32573;51.290;6.926;2022-12-24T11:43:37;99892.50;;;11.38;100.00
46836;BME280;32573;51.290;6.926;2022-12-24T11:46:18;99886.44;;;11.40;100.00
46836;BME280;32573;51.290;6.926;2022-12-24T11:49:04;99893.44;;;11.40;100.00
46836;BME280;32573;51.290;6.926;2022-12-24T11:51:35;99896.03;;;11.40;100.00
46836;BME280;32573;51.290;6.926;2022-12-24T11:54:11;99901.34;;;11.41;100.00
46836;BME280;32573;51.290;6.926;2022-12-24T11:56:45;99893.47;;;11.41;100.00
46836;BME280;32573;51.290;6.926;2022-12-24T11:59:20;99897.84;;;11.41;100.00
46836;BME280;32573;51.290;6.926;2022-12-24T12:01:54;99898.72;;;11.41;100.00
46836;BME280;32573;51.290;6.926;2022-12-24T12:04:28;99897.00;;;11.43;100.00
46836;BME280;32573;51.290;6.926;2022-12-24T12:07:00;99890.94;;;11.46;100.00
46836;BME280;32573;51.290;6.926;2022-12-24T12:09:46;99896.19;;;11.46;100.00
46836;BME280;32573;51.290;6.926;2022-12-24T12:12:21;99892.75;;;11.49;100.00
46836;BME280;32573;51.290;6.926;2022-12-24T12:14:54;99895.47;;;11.53;100.00
46836;BME280;32573;51.290;6.926;2022-12-24T12:17:29;99897.25;;;11.56;100.00
46836;BME280;32573;51.290;6.926;2022-12-24T12:20:04;99905.16;;;11.59;100.00
46836;BME280;32573;51.290;6.926;2022-12-24T12:22:41;99905.19;;;11.60;100.00
46836;BME280;32573;51.290;6.926;2022-12-24T12:25:20;99905.25;;;11.63;100.00
46836;BME280;32573;51.290;6.926;2022-12-24T12:27:53;99902.66;;;11.65;100.00
46836;BME280;32573;51.290;6.926;2022-12-24T12:30:24;99900.13;;;11.70;100.00
46836;BME280;32573;51.290;6.926;2022-12-24T12:32:56;99897.53;;;11.71;100.00
46836;BME280;32573;51.290;6.926;2022-12-24T12:35:30;99902.84;;;11.74;100.00
46836;BME280;32573;51.290;6.926;2022-12-24T12:38:02;99911.66;;;11.79;100.00
46836;BME280;32573;51.290;6.926;2022-12-24T12:40:44;99914.34;;;11.82;100.00
46836;BME280;32573;51.290;6.926;2022-12-24T12:43:29;99919.63;;;11.84;100.00
46836;BME280;32573;51.290;6.926;2022-12-24T12:46:10;99922.25;;;11.85;100.00
46836;BME280;32573;51.290;6.926;2022-12-24T12:48:53;99918.75;;;11.83;100.00
46836;BME280;32573;51.290;6.926;2022-12-24T12:51:36;99923.06;;;11.81;100.00
46836;BME280;32573;51.290;6.926;2022-12-24T12:54:22;99914.25;;;11.78;100.00
46836;BME280;32573;51.290;6.926;2022-12-24T12:57:01;99938.72;;;11.77;100.00
46836;BME280;32573;51.290;6.926;2022-12-24T12:59:35;99953.56;;;11.76;100.00
46836;BME280;32573;51.290;6.926;2022-12-24T13:02:21;99940.47;;;11.76;100.00
46836;BME280;32573;51.290;6.926;2022-12-24T13:05:05;99938.72;;;11.77;100.00
46836;BME280;32573;51.290;6.926;2022-12-24T13:08:03;99939.59;;;11.77;100.00
46836;BME280;32573;51.290;6.926;2022-12-24T13:14:10;99950.91;;;11.75;100.00
46836;BME280;32573;51.290;6.926;2022-12-24T13:20:11;99946.53;;;11.74;100.00
46836;BME280;32573;51.290;6.926;2022-12-24T13:22:55;99943.03;;;11.73;100.00
46836;BME280;32573;51.290;6.926;2022-12-24T13:25:35;99947.41;;;11.74;100.00